sensor_id;sensor_type;location;lat;lon;timestamp;P1;durP1;ratioP1;P2;durP2;ratioP2
28545;SDS011;15749;49.606;8.738;2023-08-06T00:00:51;1.47;;;1.37;;
28545;SDS011;15749;49.606;8.738;2023-08-06T00:03:20;1.70;;;1.60;;
28545;SDS011;15749;49.606;8.738;2023-08-06T00:05:49;2.07;;;1.47;;
28545;SDS011;15749;49.606;8.738;2023-08-06T00:08:18;1.80;;;1.70;;
28545;SDS011;15749;49.606;8.738;2023-08-06T00:10:47;1.37;;;1.27;;
28545;SDS011;15749;49.606;8.738;2023-08-06T00:13:16;1.60;;;1.50;;
28545;SDS011;15749;49.606;8.738;2023-08-06T00:15:47;1.80;;;1.70;;
28545;SDS011;15749;49.606;8.738;2023-08-06T00:18:16;1.73;;;1.63;;
28545;SDS011;15749;49.606;8.738;2023-08-06T00:20:45;1.80;;;1.60;;
28545;SDS011;15749;49.606;8.738;2023-08-06T00:23:14;1.50;;;1.40;;
28545;SDS011;15749;49.606;8.738;2023-08-06T00:25:43;1.53;;;1.43;;
28545;SDS011;15749;49.606;8.738;2023-08-06T00:28:31;1.87;;;1.73;;
28545;SDS011;15749;49.606;8.738;2023-08-06T00:31:01;1.50;;;1.40;;
28545;SDS011;15749;49.606;8.738;2023-08-06T00:33:30;1.70;;;1.60;;
28545;SDS011;15749;49.606;8.738;2023-08-06T00:35:59;1.80;;;1.70;;
28545;SDS011;15749;49.606;8.738;2023-08-06T00:38:29;1.90;;;1.60;;
28545;SDS011;15749;49.606;8.738;2023-08-06T00:40:58;2.27;;;1.60;;
28545;SDS011;15749;49.606;8.738;2023-08-06T00:43:27;1.60;;;1.50;;
28545;SDS011;15749;49.606;8.738;2023-08-06T00:45:56;1.70;;;1.60;;
28545;SDS011;15749;49.606;8.738;2023-08-06T00:48:27;1.43;;;1.33;;
28545;SDS011;15749;49.606;8.738;2023-08-06T00:50:56;1.83;;;1.70;;
28545;SDS011;15749;49.606;8.738;2023-08-06T00:53:25;2.10;;;1.57;;
28545;SDS011;15749;49.606;8.738;2023-08-06T00:55:54;1.60;;;1.50;;
28545;SDS011;15749;49.606;8.738;2023-08-06T00:58:26;1.80;;;1.53;;
28545;SDS011;15749;49.606;8.738;2023-08-06T01:00:55;1.57;;;1.40;;
28545;SDS011;15749;49.606;8.738;2023-08-06T01:03:24;1.40;;;1.30;;
28545;SDS011;15749;49.606;8.738;2023-08-06T01:05:55;1.73;;;1.50;;
28545;SDS011;15749;49.606;8.738;2023-08-06T01:08:28;1.57;;;1.47;;
28545;SDS011;15749;49.606;8.738;2023-08-06T01:11:08;1.40;;;1.30;;
28545;SDS011;15749;49.606;8.738;2023-08-06T01:13:48;1.80;;;1.20;;
28545;SDS011;15749;49.606;8.738;2023-08-06T01:16:22;2.90;;;1.30;;
28545;SDS011;15749;49.606;8.738;2023-08-06T01:18:54;2.17;;;1.33;;
28545;SDS011;15749;49.606;8.738;2023-08-06T01:21:24;1.53;;;1.40;;
28545;SDS011;15749;49.606;8.738;2023-08-06T01:23:53;1.53;;;1.30;;
28545;SDS011;15749;49.606;8.738;2023-08-06T01:26:24;1.93;;;1.40;;
28545;SDS011;15749;49.606;8.738;2023-08-06T01:29:03;1.47;;;1.20;;
28545;SDS011;15749;49.606;8.738;2023-08-06T01:31:37;1.20;;;1.10;;
28545;SDS011;15749;49.606;8.738;2023-08-06T01:34:10;1.13;;;1.10;;
28545;SDS011;15749;49.606;8.738;2023-08-06T01:36:50;1.43;;;1.33;;
28545;SDS011;15749;49.606;8.738;2023-08-06T01:39:19;1.30;;;1.20;;
28545;SDS011;15749;49.606;8.738;2023-08-06T01:41:48;1.30;;;1.20;;
28545;SDS011;15749;49.606;8.738;2023-08-06T01:44:21;1.97;;;1.40;;
28545;SDS011;15749;49.606;8.738;2023-08-06T01:46:50;2.87;;;1.40;;
28545;SDS011;15749;49.606;8.738;2023-08-06T01:49:19;1.40;;;1.30;;
28545;SDS011;15749;49.606;8.738;2023-08-06T01:51:49;1.87;;;1.47;;
28545;SDS011;15749;49.606;8.738;2023-08-06T01:54:19;1.57;;;1.47;;
28545;SDS011;15749;49.606;8.738;2023-08-06T01:56:48;1.30;;;1.20;;
28545;SDS011;15749;49.606;8.738;2023-08-06T01:59:17;1.60;;;1.27;;
28545;SDS011;15749;49.606;8.738;2023-08-06T02:01:46;1.30;;;1.20;;
28545;SDS011;15749;49.606;8.738;2023-08-06T02:04:15;1.40;;;1.30;;
28545;SDS011;15749;49.606;8.738;2023-08-06T02:06:44;1.90;;;1.33;;
28545;SDS011;15749;49.606;8.738;2023-08-06T02:09:14;1.40;;;1.30;;
28545;SDS011;15749;49.606;8.738;2023-08-06T02:11:43;1.40;;;1.30;;
28545;SDS011;15749;49.606;8.738;2023-08-06T02:14:12;2.50;;;1.50;;
28545;SDS011;15749;49.606;8.738;2023-08-06T02:16:41;1.93;;;1.30;;
28545;SDS011;15749;49.606;8.738;2023-08-06T02:19:10;2.10;;;1.20;;
28545;SDS011;15749;49.606;8.738;2023-08-06T02:21:40;1.40;;;1.30;;
28545;SDS011;15749;49.606;8.738;2023-08-06T02:24:09;2.90;;;1.13;;
28545;SDS011;15749;49.606;8.738;2023-08-06T02:26:40;1.20;;;1.10;;
28545;SDS011;15749;49.606;8.738;2023-08-06T02:29:09;1.50;;;1.40;;
28545;SDS011;15749;49.606;8.738;2023-08-06T02:31:41;2.70;;;1.57;;
28545;SDS011;15749;49.606;8.738;2023-08-06T02:34:10;1.40;;;1.30;;
28545;SDS011;15749;49.606;8.738;2023-08-06T02:36:39;1.50;;;1.40;;
28545;SDS011;15749;49.606;8.738;2023-08-06T02:39:08;1.30;;;1.20;;
28545;SDS011;15749;49.606;8.738;2023-08-06T02:41:37;1.30;;;1.00;;
28545;SDS011;15749;49.606;8.738;2023-08-06T02:44:08;1.60;;;1.50;;
28545;SDS011;15749;49.606;8.738;2023-08-06T02:46:37;1.80;;;1.30;;
28545;SDS011;15749;49.606;8.738;2023-08-06T02:49:06;1.30;;;1.20;;
28545;SDS011;15749;49.606;8.738;2023-08-06T02:51:35;2.73;;;1.20;;
28545;SDS011;15749;49.606;8.738;2023-08-06T02:54:04;1.97;;;1.50;;
28545;SDS011;15749;49.606;8.738;2023-08-06T02:56:35;2.23;;;1.80;;
28545;SDS011;15749;49.606;8.738;2023-08-06T02:59:19;1.53;;;1.40;;
28545;SDS011;15749;49.606;8.738;2023-08-06T03:02:00;1.23;;;1.13;;
28545;SDS011;15749;49.606;8.738;2023-08-06T03:04:45;1.40;;;1.30;;
28545;SDS011;15749;49.606;8.738;2023-08-06T03:07:14;1.43;;;1.23;;
28545;SDS011;15749;49.606;8.738;2023-08-06T03:09:52;1.57;;;1.47;;
28545;SDS011;15749;49.606;8.738;2023-08-06T03:12:21;2.63;;;1.77;;
28545;SDS011;15749;49.606;8.738;2023-08-06T03:14:52;2.70;;;1.73;;
28545;SDS011;15749;49.606;8.738;2023-08-06T03:17:21;2.13;;;1.20;;
28545;SDS011;15749;49.606;8.738;2023-08-06T03:19:50;3.23;;;1.60;;
28545;SDS011;15749;49.606;8.738;2023-08-06T03:22:19;1.70;;;1.30;;
28545;SDS011;15749;49.606;8.738;2023-08-06T03:24:50;6.53;;;1.40;;
28545;SDS011;15749;49.606;8.738;2023-08-06T03:27:22;2.30;;;1.47;;
28545;SDS011;15749;49.606;8.738;2023-08-06T03:29:53;1.77;;;1.20;;
28545;SDS011;15749;49.606;8.738;2023-08-06T03:32:25;1.33;;;1.13;;
28545;SDS011;15749;49.606;8.738;2023-08-06T03:34:55;2.23;;;1.50;;
28545;SDS011;15749;49.606;8.738;2023-08-06T03:37:28;1.27;;;1.17;;
28545;SDS011;15749;49.606;8.738;2023-08-06T03:39:57;1.60;;;1.40;;
28545;SDS011;15749;49.606;8.738;2023-08-06T03:42:26;1.33;;;1.13;;
28545;SDS011;15749;49.606;8.738;2023-08-06T03:44:56;2.77;;;1.30;;
28545;SDS011;15749;49.606;8.738;2023-08-06T03:47:26;2.07;;;1.23;;
28545;SDS011;15749;49.606;8.738;2023-08-06T03:49:55;1.70;;;1.40;;
28545;SDS011;15749;49.606;8.738;2023-08-06T03:52:25;1.93;;;1.50;;
28545;SDS011;15749;49.606;8.738;2023-08-06T03:54:54;1.60;;;1.50;;
28545;SDS011;15749;49.606;8.738;2023-08-06T03:57:22;1.57;;;1.30;;
28545;SDS011;15749;49.606;8.738;2023-08-06T03:59:51;2.73;;;1.30;;
28545;SDS011;15749;49.606;8.738;2023-08-06T04:02:25;1.40;;;1.10;;
28545;SDS011;15749;49.606;8.738;2023-08-06T04:04:54;1.97;;;0.83;;
28545;SDS011;15749;49.606;8.738;2023-08-06T04:07:24;1.40;;;1.00;;
28545;SDS011;15749;49.606;8.738;2023-08-06T04:09:55;2.03;;;1.00;;
28545;SDS011;15749;49.606;8.738;2023-08-06T04:12:26;1.93;;;1.00;;
28545;SDS011;15749;49.606;8.738;2023-08-06T04:14:59;1.20;;;0.90;;
28545;SDS011;15749;49.606;8.738;2023-08-06T04:17:30;2.37;;;1.00;;
28545;SDS011;15749;49.606;8.738;2023-08-06T04:19:59;1.03;;;0.77;;
28545;SDS011;15749;49.606;8.738;2023-08-06T04:22:29;1.07;;;0.90;;
28545;SDS011;15749;49.606;8.738;2023-08-06T04:24:58;1.93;;;1.00;;
28545;SDS011;15749;49.606;8.738;2023-08-06T04:27:27;1.60;;;1.00;;
28545;SDS011;15749;49.606;8.738;2023-08-06T04:29:56;1.43;;;1.07;;
28545;SDS011;15749;49.606;8.738;2023-08-06T04:32:26;3.50;;;1.10;;
28545;SDS011;15749;49.606;8.738;2023-08-06T04:34:58;1.30;;;1.00;;
28545;SDS011;15749;49.606;8.738;2023-08-06T04:37:27;1.93;;;1.23;;
28545;SDS011;15749;49.606;8.738;2023-08-06T04:39:56;2.53;;;0.97;;
28545;SDS011;15749;49.606;8.738;2023-08-06T04:42:25;1.43;;;1.00;;
28545;SDS011;15749;49.606;8.738;2023-08-06T04:44:54;1.73;;;1.23;;
28545;SDS011;15749;49.606;8.738;2023-08-06T04:47:23;1.77;;;1.00;;
28545;SDS011;15749;49.606;8.738;2023-08-06T04:49:53;1.50;;;1.00;;
28545;SDS011;15749;49.606;8.738;2023-08-06T04:52:23;2.40;;;1.30;;
28545;SDS011;15749;49.606;8.738;2023-08-06T04:54:57;1.63;;;1.20;;
28545;SDS011;15749;49.606;8.738;2023-08-06T04:57:26;1.83;;;1.40;;
28545;SDS011;15749;49.606;8.738;2023-08-06T04:59:55;1.33;;;1.07;;
28545;SDS011;15749;49.606;8.738;2023-08-06T05:02:24;2.00;;;1.00;;
28545;SDS011;15749;49.606;8.738;2023-08-06T05:04:53;3.73;;;1.00;;
28545;SDS011;15749;49.606;8.738;2023-08-06T05:07:24;1.90;;;1.13;;
28545;SDS011;15749;49.606;8.738;2023-08-06T05:09:53;1.80;;;0.90;;
28545;SDS011;15749;49.606;8.738;2023-08-06T05:12:22;2.23;;;1.00;;
28545;SDS011;15749;49.606;8.738;2023-08-06T05:14:51;2.00;;;0.80;;
28545;SDS011;15749;49.606;8.738;2023-08-06T05:17:20;1.03;;;0.80;;
28545;SDS011;15749;49.606;8.738;2023-08-06T05:19:53;0.93;;;0.80;;
28545;SDS011;15749;49.606;8.738;2023-08-06T05:22:26;2.73;;;0.87;;
28545;SDS011;15749;49.606;8.738;2023-08-06T05:24:58;0.80;;;0.80;;
28545;SDS011;15749;49.606;8.738;2023-08-06T05:27:27;3.00;;;1.10;;
28545;SDS011;15749;49.606;8.738;2023-08-06T05:29:56;0.63;;;0.63;;
28545;SDS011;15749;49.606;8.738;2023-08-06T05:32:25;1.60;;;0.77;;
28545;SDS011;15749;49.606;8.738;2023-08-06T05:34:54;0.80;;;0.70;;
28545;SDS011;15749;49.606;8.738;2023-08-06T05:37:23;1.03;;;0.53;;
28545;SDS011;15749;49.606;8.738;2023-08-06T05:39:53;2.83;;;0.80;;
28545;SDS011;15749;49.606;8.738;2023-08-06T05:42:22;0.57;;;0.53;;
28545;SDS011;15749;49.606;8.738;2023-08-06T05:44:54;0.90;;;0.50;;
28545;SDS011;15749;49.606;8.738;2023-08-06T05:47:23;0.83;;;0.50;;
28545;SDS011;15749;49.606;8.738;2023-08-06T05:49:52;0.83;;;0.50;;
28545;SDS011;15749;49.606;8.738;2023-08-06T05:52:21;0.50;;;0.33;;
28545;SDS011;15749;49.606;8.738;2023-08-06T05:54:50;0.50;;;0.50;;
28545;SDS011;15749;49.606;8.738;2023-08-06T05:57:21;0.80;;;0.50;;
28545;SDS011;15749;49.606;8.738;2023-08-06T05:59:52;0.93;;;0.47;;
28545;SDS011;15749;49.606;8.738;2023-08-06T06:02:21;1.17;;;0.60;;
28545;SDS011;15749;49.606;8.738;2023-08-06T06:04:50;1.07;;;0.50;;
28545;SDS011;15749;49.606;8.738;2023-08-06T06:07:20;0.87;;;0.43;;
28545;SDS011;15749;49.606;8.738;2023-08-06T06:09:49;1.10;;;0.50;;
28545;SDS011;15749;49.606;8.738;2023-08-06T06:12:18;0.97;;;0.50;;
28545;SDS011;15749;49.606;8.738;2023-08-06T06:14:50;0.87;;;0.40;;
28545;SDS011;15749;49.606;8.738;2023-08-06T06:17:19;0.87;;;0.50;;
28545;SDS011;15749;49.606;8.738;2023-08-06T06:19:50;0.97;;;0.60;;
28545;SDS011;15749;49.606;8.738;2023-08-06T06:22:19;1.00;;;0.60;;
28545;SDS011;15749;49.606;8.738;2023-08-06T06:24:48;1.07;;;0.60;;
28545;SDS011;15749;49.606;8.738;2023-08-06T06:27:20;1.67;;;0.57;;
28545;SDS011;15749;49.606;8.738;2023-08-06T06:29:53;1.63;;;0.50;;
28545;SDS011;15749;49.606;8.738;2023-08-06T06:32:22;0.60;;;0.30;;
28545;SDS011;15749;49.606;8.738;2023-08-06T06:34:51;1.03;;;0.50;;
28545;SDS011;15749;49.606;8.738;2023-08-06T06:37:21;1.07;;;0.40;;
28545;SDS011;15749;49.606;8.738;2023-08-06T06:39:50;2.10;;;0.50;;
28545;SDS011;15749;49.606;8.738;2023-08-06T06:42:19;0.93;;;0.50;;
28545;SDS011;15749;49.606;8.738;2023-08-06T06:44:53;0.83;;;0.50;;
28545;SDS011;15749;49.606;8.738;2023-08-06T06:47:22;0.93;;;0.40;;
28545;SDS011;15749;49.606;8.738;2023-08-06T06:49:52;0.80;;;0.40;;
28545;SDS011;15749;49.606;8.738;2023-08-06T06:52:21;1.13;;;0.53;;
28545;SDS011;15749;49.606;8.738;2023-08-06T06:54:50;0.90;;;0.47;;
28545;SDS011;15749;49.606;8.738;2023-08-06T06:57:19;0.87;;;0.40;;
28545;SDS011;15749;49.606;8.738;2023-08-06T06:59:49;1.07;;;0.40;;
28545;SDS011;15749;49.606;8.738;2023-08-06T07:02:19;0.70;;;0.40;;
28545;SDS011;15749;49.606;8.738;2023-08-06T07:04:51;0.73;;;0.43;;
28545;SDS011;15749;49.606;8.738;2023-08-06T07:07:21;1.57;;;0.50;;
28545;SDS011;15749;49.606;8.738;2023-08-06T07:09:50;0.87;;;0.50;;
28545;SDS011;15749;49.606;8.738;2023-08-06T07:12:19;1.07;;;0.43;;
28545;SDS011;15749;49.606;8.738;2023-08-06T07:14:52;0.40;;;0.30;;
28545;SDS011;15749;49.606;8.738;2023-08-06T07:17:22;0.37;;;0.30;;
28545;SDS011;15749;49.606;8.738;2023-08-06T07:19:51;0.67;;;0.40;;
28545;SDS011;15749;49.606;8.738;2023-08-06T07:22:23;0.50;;;0.30;;
28545;SDS011;15749;49.606;8.738;2023-08-06T07:24:52;1.47;;;0.40;;
28545;SDS011;15749;49.606;8.738;2023-08-06T07:27:21;0.87;;;0.40;;
28545;SDS011;15749;49.606;8.738;2023-08-06T07:29:51;0.83;;;0.50;;
28545;SDS011;15749;49.606;8.738;2023-08-06T07:32:21;1.50;;;0.50;;
28545;SDS011;15749;49.606;8.738;2023-08-06T07:34:51;0.50;;;0.40;;
28545;SDS011;15749;49.606;8.738;2023-08-06T07:37:23;0.50;;;0.30;;
28545;SDS011;15749;49.606;8.738;2023-08-06T07:39:52;1.00;;;0.40;;
28545;SDS011;15749;49.606;8.738;2023-08-06T07:42:22;0.50;;;0.50;;
28545;SDS011;15749;49.606;8.738;2023-08-06T07:44:51;0.50;;;0.30;;
28545;SDS011;15749;49.606;8.738;2023-08-06T07:47:23;0.27;;;0.27;;
28545;SDS011;15749;49.606;8.738;2023-08-06T07:49:52;0.70;;;0.40;;
28545;SDS011;15749;49.606;8.738;2023-08-06T07:52:22;0.33;;;0.30;;
28545;SDS011;15749;49.606;8.738;2023-08-06T07:54:51;0.93;;;0.40;;
28545;SDS011;15749;49.606;8.738;2023-08-06T07:57:20;0.63;;;0.40;;
28545;SDS011;15749;49.606;8.738;2023-08-06T07:59:49;2.00;;;0.80;;
28545;SDS011;15749;49.606;8.738;2023-08-06T08:02:18;0.60;;;0.40;;
28545;SDS011;15749;49.606;8.738;2023-08-06T08:04:49;1.40;;;0.33;;
28545;SDS011;15749;49.606;8.738;2023-08-06T08:07:18;0.60;;;0.27;;
28545;SDS011;15749;49.606;8.738;2023-08-06T08:09:47;2.00;;;0.30;;
28545;SDS011;15749;49.606;8.738;2023-08-06T08:12:17;0.20;;;0.20;;
28545;SDS011;15749;49.606;8.738;2023-08-06T08:14:46;0.40;;;0.20;;
28545;SDS011;15749;49.606;8.738;2023-08-06T08:17:17;1.17;;;0.30;;
28545;SDS011;15749;49.606;8.738;2023-08-06T08:19:46;0.50;;;0.30;;
28545;SDS011;15749;49.606;8.738;2023-08-06T08:22:16;0.40;;;0.30;;
28545;SDS011;15749;49.606;8.738;2023-08-06T08:24:45;1.17;;;0.30;;
28545;SDS011;15749;49.606;8.738;2023-08-06T08:27:14;0.87;;;0.30;;
28545;SDS011;15749;49.606;8.738;2023-08-06T08:29:43;0.67;;;0.40;;
28545;SDS011;15749;49.606;8.738;2023-08-06T08:32:13;0.40;;;0.20;;
28545;SDS011;15749;49.606;8.738;2023-08-06T08:34:42;2.23;;;0.30;;
28545;SDS011;15749;49.606;8.738;2023-08-06T08:37:11;0.57;;;0.20;;
28545;SDS011;15749;49.606;8.738;2023-08-06T08:39:42;0.43;;;0.30;;
28545;SDS011;15749;49.606;8.738;2023-08-06T08:42:12;0.70;;;0.30;;
28545;SDS011;15749;49.606;8.738;2023-08-06T08:44:41;0.47;;;0.30;;
28545;SDS011;15749;49.606;8.738;2023-08-06T08:47:11;0.30;;;0.30;;
28545;SDS011;15749;49.606;8.738;2023-08-06T08:49:45;0.40;;;0.30;;
28545;SDS011;15749;49.606;8.738;2023-08-06T08:52:15;0.50;;;0.30;;
28545;SDS011;15749;49.606;8.738;2023-08-06T08:54:49;1.13;;;0.53;;
28545;SDS011;15749;49.606;8.738;2023-08-06T08:57:20;0.60;;;0.40;;
28545;SDS011;15749;49.606;8.738;2023-08-06T08:59:49;1.13;;;0.43;;
28545;SDS011;15749;49.606;8.738;2023-08-06T09:02:18;0.50;;;0.40;;
28545;SDS011;15749;49.606;8.738;2023-08-06T09:04:52;0.67;;;0.30;;
28545;SDS011;15749;49.606;8.738;2023-08-06T09:07:22;1.07;;;0.37;;
28545;SDS011;15749;49.606;8.738;2023-08-06T09:09:53;0.40;;;0.30;;
28545;SDS011;15749;49.606;8.738;2023-08-06T09:12:23;0.60;;;0.30;;
28545;SDS011;15749;49.606;8.738;2023-08-06T09:14:53;0.57;;;0.37;;
28545;SDS011;15749;49.606;8.738;2023-08-06T09:17:22;0.37;;;0.30;;
28545;SDS011;15749;49.606;8.738;2023-08-06T09:19:52;0.20;;;0.20;;
28545;SDS011;15749;49.606;8.738;2023-08-06T09:22:21;0.50;;;0.30;;
28545;SDS011;15749;49.606;8.738;2023-08-06T09:24:50;0.20;;;0.20;;
28545;SDS011;15749;49.606;8.738;2023-08-06T09:27:20;0.50;;;0.30;;
28545;SDS011;15749;49.606;8.738;2023-08-06T09:29:51;0.27;;;0.27;;
28545;SDS011;15749;49.606;8.738;2023-08-06T09:32:20;0.43;;;0.30;;
28545;SDS011;15749;49.606;8.738;2023-08-06T09:34:54;0.43;;;0.30;;
28545;SDS011;15749;49.606;8.738;2023-08-06T09:37:25;0.50;;;0.30;;
28545;SDS011;15749;49.606;8.738;2023-08-06T09:40:04;0.30;;;0.20;;
28545;SDS011;15749;49.606;8.738;2023-08-06T09:42:56;0.43;;;0.40;;
28545;SDS011;15749;49.606;8.738;2023-08-06T09:45:28;0.37;;;0.37;;
28545;SDS011;15749;49.606;8.738;2023-08-06T09:48:00;0.43;;;0.37;;
28545;SDS011;15749;49.606;8.738;2023-08-06T09:50:33;0.50;;;0.30;;
28545;SDS011;15749;49.606;8.738;2023-08-06T09:53:06;0.60;;;0.30;;
28545;SDS011;15749;49.606;8.738;2023-08-06T09:55:36;0.40;;;0.40;;
28545;SDS011;15749;49.606;8.738;2023-08-06T09:58:07;1.93;;;0.50;;
28545;SDS011;15749;49.606;8.738;2023-08-06T10:00:37;0.30;;;0.30;;
28545;SDS011;15749;49.606;8.738;2023-08-06T10:03:06;0.43;;;0.37;;
28545;SDS011;15749;49.606;8.738;2023-08-06T10:05:41;0.63;;;0.20;;
28545;SDS011;15749;49.606;8.738;2023-08-06T10:08:14;0.20;;;0.20;;
28545;SDS011;15749;49.606;8.738;2023-08-06T10:10:44;1.10;;;0.50;;
28545;SDS011;15749;49.606;8.738;2023-08-06T10:13:15;0.83;;;0.37;;
28545;SDS011;15749;49.606;8.738;2023-08-06T10:15:47;0.60;;;0.40;;
28545;SDS011;15749;49.606;8.738;2023-08-06T10:18:18;0.63;;;0.30;;
28545;SDS011;15749;49.606;8.738;2023-08-06T10:20:49;1.23;;;0.30;;
28545;SDS011;15749;49.606;8.738;2023-08-06T10:23:19;0.60;;;0.40;;
28545;SDS011;15749;49.606;8.738;2023-08-06T10:25:53;0.30;;;0.30;;
28545;SDS011;15749;49.606;8.738;2023-08-06T10:28:25;0.20;;;0.20;;
28545;SDS011;15749;49.606;8.738;2023-08-06T10:31:03;1.10;;;0.30;;
28545;SDS011;15749;49.606;8.738;2023-08-06T10:33:42;0.30;;;0.23;;
28545;SDS011;15749;49.606;8.738;2023-08-06T10:36:13;0.43;;;0.30;;
28545;SDS011;15749;49.606;8.738;2023-08-06T10:38:44;0.40;;;0.30;;
28545;SDS011;15749;49.606;8.738;2023-08-06T10:41:21;1.03;;;0.40;;
28545;SDS011;15749;49.606;8.738;2023-08-06T10:44:06;0.30;;;0.30;;
28545;SDS011;15749;49.606;8.738;2023-08-06T10:46:36;0.60;;;0.20;;
28545;SDS011;15749;49.606;8.738;2023-08-06T10:49:06;0.33;;;0.20;;
28545;SDS011;15749;49.606;8.738;2023-08-06T10:51:35;0.20;;;0.10;;
28545;SDS011;15749;49.606;8.738;2023-08-06T10:54:04;1.03;;;0.20;;
28545;SDS011;15749;49.606;8.738;2023-08-06T10:56:39;0.63;;;0.20;;
28545;SDS011;15749;49.606;8.738;2023-08-06T10:59:14;0.20;;;0.10;;
28545;SDS011;15749;49.606;8.738;2023-08-06T11:01:43;0.20;;;0.20;;
28545;SDS011;15749;49.606;8.738;2023-08-06T11:04:13;0.27;;;0.10;;
28545;SDS011;15749;49.606;8.738;2023-08-06T11:06:44;0.30;;;0.20;;
28545;SDS011;15749;49.606;8.738;2023-08-06T11:09:21;0.47;;;0.20;;
28545;SDS011;15749;49.606;8.738;2023-08-06T11:11:50;0.60;;;0.30;;
28545;SDS011;15749;49.606;8.738;2023-08-06T11:14:22;0.30;;;0.30;;
28545;SDS011;15749;49.606;8.738;2023-08-06T11:16:51;0.20;;;0.20;;
28545;SDS011;15749;49.606;8.738;2023-08-06T11:19:22;0.57;;;0.20;;
28545;SDS011;15749;49.606;8.738;2023-08-06T11:21:52;0.20;;;0.20;;
28545;SDS011;15749;49.606;8.738;2023-08-06T11:24:22;0.20;;;0.17;;
28545;SDS011;15749;49.606;8.738;2023-08-06T11:26:52;0.20;;;0.20;;
28545;SDS011;15749;49.606;8.738;2023-08-06T11:29:23;0.60;;;0.33;;
28545;SDS011;15749;49.606;8.738;2023-08-06T11:31:53;1.77;;;0.30;;
28545;SDS011;15749;49.606;8.738;2023-08-06T11:34:32;0.30;;;0.30;;
28545;SDS011;15749;49.606;8.738;2023-08-06T11:37:02;0.30;;;0.30;;
28545;SDS011;15749;49.606;8.738;2023-08-06T11:39:34;0.30;;;0.30;;
28545;SDS011;15749;49.606;8.738;2023-08-06T11:42:05;0.40;;;0.30;;
28545;SDS011;15749;49.606;8.738;2023-08-06T11:44:36;0.83;;;0.30;;
28545;SDS011;15749;49.606;8.738;2023-08-06T11:47:11;0.93;;;0.30;;
28545;SDS011;15749;49.606;8.738;2023-08-06T11:49:43;0.40;;;0.37;;
28545;SDS011;15749;49.606;8.738;2023-08-06T11:52:15;0.30;;;0.30;;
28545;SDS011;15749;49.606;8.738;2023-08-06T11:54:47;0.40;;;0.20;;
28545;SDS011;15749;49.606;8.738;2023-08-06T11:57:30;0.40;;;0.20;;
28545;SDS011;15749;49.606;8.738;2023-08-06T12:00:04;0.30;;;0.30;;
28545;SDS011;15749;49.606;8.738;2023-08-06T12:02:43;0.30;;;0.30;;
28545;SDS011;15749;49.606;8.738;2023-08-06T12:05:14;0.20;;;0.20;;
28545;SDS011;15749;49.606;8.738;2023-08-06T12:07:45;0.30;;;0.20;;
28545;SDS011;15749;49.606;8.738;2023-08-06T12:10:16;0.87;;;0.40;;
28545;SDS011;15749;49.606;8.738;2023-08-06T12:12:48;0.30;;;0.30;;
28545;SDS011;15749;49.606;8.738;2023-08-06T12:15:19;0.30;;;0.30;;
28545;SDS011;15749;49.606;8.738;2023-08-06T12:17:49;0.30;;;0.30;;
28545;SDS011;15749;49.606;8.738;2023-08-06T12:20:18;0.30;;;0.30;;
28545;SDS011;15749;49.606;8.738;2023-08-06T12:22:48;1.73;;;0.30;;
28545;SDS011;15749;49.606;8.738;2023-08-06T12:25:18;0.30;;;0.30;;
28545;SDS011;15749;49.606;8.738;2023-08-06T12:27:47;0.47;;;0.30;;
28545;SDS011;15749;49.606;8.738;2023-08-06T12:30:17;0.70;;;0.50;;
28545;SDS011;15749;49.606;8.738;2023-08-06T12:32:48;0.90;;;0.40;;
28545;SDS011;15749;49.606;8.738;2023-08-06T12:35:19;0.40;;;0.40;;
28545;SDS011;15749;49.606;8.738;2023-08-06T12:37:48;0.43;;;0.40;;
28545;SDS011;15749;49.606;8.738;2023-08-06T12:40:21;0.53;;;0.40;;
28545;SDS011;15749;49.606;8.738;2023-08-06T12:43:03;0.70;;;0.43;;
28545;SDS011;15749;49.606;8.738;2023-08-06T12:45:34;0.40;;;0.40;;
28545;SDS011;15749;49.606;8.738;2023-08-06T12:48:03;0.57;;;0.57;;
28545;SDS011;15749;49.606;8.738;2023-08-06T12:50:33;0.90;;;0.50;;
28545;SDS011;15749;49.606;8.738;2023-08-06T12:53:03;1.27;;;0.50;;
28545;SDS011;15749;49.606;8.738;2023-08-06T12:55:41;1.33;;;0.33;;
28545;SDS011;15749;49.606;8.738;2023-08-06T12:58:10;0.40;;;0.40;;
28545;SDS011;15749;49.606;8.738;2023-08-06T13:00:41;0.70;;;0.40;;
28545;SDS011;15749;49.606;8.738;2023-08-06T13:03:11;0.50;;;0.50;;
28545;SDS011;15749;49.606;8.738;2023-08-06T13:05:41;0.67;;;0.47;;
28545;SDS011;15749;49.606;8.738;2023-08-06T13:08:11;0.70;;;0.50;;
28545;SDS011;15749;49.606;8.738;2023-08-06T13:10:40;0.60;;;0.57;;
28545;SDS011;15749;49.606;8.738;2023-08-06T13:13:10;0.60;;;0.60;;
28545;SDS011;15749;49.606;8.738;2023-08-06T13:15:39;1.23;;;0.53;;
28545;SDS011;15749;49.606;8.738;2023-08-06T13:18:10;1.50;;;0.50;;
28545;SDS011;15749;49.606;8.738;2023-08-06T13:20:40;0.80;;;0.60;;
28545;SDS011;15749;49.606;8.738;2023-08-06T13:23:09;1.07;;;0.43;;
28545;SDS011;15749;49.606;8.738;2023-08-06T13:25:39;0.63;;;0.40;;
28545;SDS011;15749;49.606;8.738;2023-08-06T13:28:09;1.77;;;0.57;;
28545;SDS011;15749;49.606;8.738;2023-08-06T13:30:38;0.70;;;0.40;;
28545;SDS011;15749;49.606;8.738;2023-08-06T13:33:11;0.60;;;0.57;;
28545;SDS011;15749;49.606;8.738;2023-08-06T13:35:40;0.60;;;0.40;;
28545;SDS011;15749;49.606;8.738;2023-08-06T13:38:10;0.60;;;0.40;;
28545;SDS011;15749;49.606;8.738;2023-08-06T13:40:39;0.50;;;0.50;;
28545;SDS011;15749;49.606;8.738;2023-08-06T13:43:09;0.87;;;0.57;;
28545;SDS011;15749;49.606;8.738;2023-08-06T13:45:39;0.57;;;0.57;;
28545;SDS011;15749;49.606;8.738;2023-08-06T13:48:08;0.40;;;0.40;;
28545;SDS011;15749;49.606;8.738;2023-08-06T13:50:39;1.13;;;0.50;;
28545;SDS011;15749;49.606;8.738;2023-08-06T13:53:09;0.40;;;0.40;;
28545;SDS011;15749;49.606;8.738;2023-08-06T13:55:39;2.30;;;0.57;;
28545;SDS011;15749;49.606;8.738;2023-08-06T13:58:08;0.93;;;0.40;;
28545;SDS011;15749;49.606;8.738;2023-08-06T14:00:38;0.77;;;0.40;;
28545;SDS011;15749;49.606;8.738;2023-08-06T14:03:07;1.00;;;0.60;;
28545;SDS011;15749;49.606;8.738;2023-08-06T14:05:38;0.83;;;0.47;;
28545;SDS011;15749;49.606;8.738;2023-08-06T14:08:08;0.70;;;0.50;;
28545;SDS011;15749;49.606;8.738;2023-08-06T14:10:37;0.40;;;0.40;;
28545;SDS011;15749;49.606;8.738;2023-08-06T14:13:07;0.77;;;0.50;;
28545;SDS011;15749;49.606;8.738;2023-08-06T14:15:37;1.30;;;0.40;;
28545;SDS011;15749;49.606;8.738;2023-08-06T14:18:09;0.57;;;0.33;;
28545;SDS011;15749;49.606;8.738;2023-08-06T14:20:40;0.90;;;0.40;;
28545;SDS011;15749;49.606;8.738;2023-08-06T14:23:10;0.60;;;0.40;;
28545;SDS011;15749;49.606;8.738;2023-08-06T14:25:40;0.57;;;0.40;;
28545;SDS011;15749;49.606;8.738;2023-08-06T14:28:09;0.53;;;0.50;;
28545;SDS011;15749;49.606;8.738;2023-08-06T14:30:39;0.30;;;0.30;;
28545;SDS011;15749;49.606;8.738;2023-08-06T14:33:08;0.30;;;0.30;;
28545;SDS011;15749;49.606;8.738;2023-08-06T14:35:54;0.77;;;0.50;;
28545;SDS011;15749;49.606;8.738;2023-08-06T14:38:24;0.80;;;0.50;;
28545;SDS011;15749;49.606;8.738;2023-08-06T14:40:53;0.97;;;0.50;;
28545;SDS011;15749;49.606;8.738;2023-08-06T14:43:26;0.73;;;0.47;;
28545;SDS011;15749;49.606;8.738;2023-08-06T14:45:55;1.07;;;0.47;;
28545;SDS011;15749;49.606;8.738;2023-08-06T14:48:24;0.30;;;0.30;;
28545;SDS011;15749;49.606;8.738;2023-08-06T14:50:55;0.40;;;0.30;;
28545;SDS011;15749;49.606;8.738;2023-08-06T14:53:25;0.83;;;0.40;;
28545;SDS011;15749;49.606;8.738;2023-08-06T14:55:54;0.37;;;0.30;;
28545;SDS011;15749;49.606;8.738;2023-08-06T14:58:24;0.70;;;0.40;;
28545;SDS011;15749;49.606;8.738;2023-08-06T15:00:54;0.40;;;0.30;;
28545;SDS011;15749;49.606;8.738;2023-08-06T15:03:23;0.30;;;0.30;;
28545;SDS011;15749;49.606;8.738;2023-08-06T15:05:56;0.40;;;0.40;;
28545;SDS011;15749;49.606;8.738;2023-08-06T15:08:26;0.60;;;0.30;;